sensor_id;sensor_type;location;lat;lon;timestamp;P1;durP1;ratioP1;P2;durP2;ratioP2
26060;SDS011;36331;51.378;0.018;2022-07-23T00:02:10;5.30;;;2.65;;
26060;SDS011;36331;51.378;0.018;2022-07-23T00:04:39;4.65;;;2.58;;
26060;SDS011;36331;51.378;0.018;2022-07-23T00:11:11;5.38;;;2.88;;
26060;SDS011;36331;51.378;0.018;2022-07-23T00:13:42;4.88;;;2.97;;
26060;SDS011;36331;51.378;0.018;2022-07-23T00:16:11;5.97;;;2.85;;
26060;SDS011;36331;51.378;0.018;2022-07-23T00:18:40;7.38;;;3.42;;
26060;SDS011;36331;51.378;0.018;2022-07-23T00:21:09;6.20;;;4.22;;
26060;SDS011;36331;51.378;0.018;2022-07-23T00:23:38;5.13;;;3.22;;
26060;SDS011;36331;51.378;0.018;2022-07-23T00:26:10;6.80;;;3.88;;
26060;SDS011;36331;51.378;0.018;2022-07-23T00:28:39;5.85;;;3.33;;
26060;SDS011;36331;51.378;0.018;2022-07-23T00:31:10;5.63;;;2.78;;
26060;SDS011;36331;51.378;0.018;2022-07-23T00:33:39;12.18;;;3.40;;
26060;SDS011;36331;51.378;0.018;2022-07-23T00:36:08;7.65;;;3.08;;
26060;SDS011;36331;51.378;0.018;2022-07-23T00:38:37;7.47;;;3.35;;
26060;SDS011;36331;51.378;0.018;2022-07-23T00:41:06;5.63;;;2.60;;
26060;SDS011;36331;51.378;0.018;2022-07-23T00:43:35;5.80;;;3.40;;
26060;SDS011;36331;51.378;0.018;2022-07-23T00:46:04;6.18;;;3.00;;
26060;SDS011;36331;51.378;0.018;2022-07-23T00:48:34;9.77;;;5.45;;
26060;SDS011;36331;51.378;0.018;2022-07-23T00:51:04;6.63;;;3.30;;
26060;SDS011;36331;51.378;0.018;2022-07-23T00:53:33;6.82;;;3.28;;
26060;SDS011;36331;51.378;0.018;2022-07-23T00:56:02;4.72;;;3.10;;
26060;SDS011;36331;51.378;0.018;2022-07-23T00:58:31;8.82;;;3.03;;
26060;SDS011;36331;51.378;0.018;2022-07-23T01:01:01;7.68;;;3.30;;
26060;SDS011;36331;51.378;0.018;2022-07-23T01:03:31;7.63;;;3.17;;
26060;SDS011;36331;51.378;0.018;2022-07-23T01:06:02;4.70;;;2.97;;
26060;SDS011;36331;51.378;0.018;2022-07-23T01:08:31;4.30;;;2.67;;
26060;SDS011;36331;51.378;0.018;2022-07-23T01:11:00;5.57;;;2.75;;
26060;SDS011;36331;51.378;0.018;2022-07-23T01:13:29;4.78;;;2.65;;
26060;SDS011;36331;51.378;0.018;2022-07-23T01:15:58;7.88;;;3.25;;
26060;SDS011;36331;51.378;0.018;2022-07-23T01:18:27;6.18;;;2.78;;
26060;SDS011;36331;51.378;0.018;2022-07-23T01:20:56;6.38;;;2.80;;
26060;SDS011;36331;51.378;0.018;2022-07-23T01:23:27;7.47;;;3.72;;
26060;SDS011;36331;51.378;0.018;2022-07-23T01:25:58;4.10;;;2.47;;
26060;SDS011;36331;51.378;0.018;2022-07-23T01:28:28;4.50;;;1.98;;
26060;SDS011;36331;51.378;0.018;2022-07-23T01:30:58;6.20;;;2.17;;
26060;SDS011;36331;51.378;0.018;2022-07-23T01:33:32;5.60;;;2.17;;
26060;SDS011;36331;51.378;0.018;2022-07-23T01:36:01;7.55;;;2.15;;
26060;SDS011;36331;51.378;0.018;2022-07-23T01:38:31;5.80;;;2.20;;
26060;SDS011;36331;51.378;0.018;2022-07-23T01:41:01;6.45;;;2.17;;
26060;SDS011;36331;51.378;0.018;2022-07-23T01:43:31;7.53;;;2.58;;
26060;SDS011;36331;51.378;0.018;2022-07-23T01:46:01;6.68;;;2.35;;
26060;SDS011;36331;51.378;0.018;2022-07-23T01:48:37;4.68;;;2.03;;
26060;SDS011;36331;51.378;0.018;2022-07-23T01:51:30;3.50;;;2.22;;
26060;SDS011;36331;51.378;0.018;2022-07-23T01:54:10;5.80;;;2.40;;
26060;SDS011;36331;51.378;0.018;2022-07-23T01:56:39;5.25;;;2.33;;
26060;SDS011;36331;51.378;0.018;2022-07-23T01:59:09;5.07;;;2.28;;
26060;SDS011;36331;51.378;0.018;2022-07-23T02:01:38;2.80;;;2.00;;
26060;SDS011;36331;51.378;0.018;2022-07-23T02:04:07;4.82;;;2.20;;
26060;SDS011;36331;51.378;0.018;2022-07-23T02:06:36;3.83;;;1.92;;
26060;SDS011;36331;51.378;0.018;2022-07-23T02:09:06;5.88;;;2.00;;
26060;SDS011;36331;51.378;0.018;2022-07-23T02:11:36;7.38;;;2.28;;
26060;SDS011;36331;51.378;0.018;2022-07-23T02:14:05;4.72;;;2.25;;
26060;SDS011;36331;51.378;0.018;2022-07-23T02:16:34;3.45;;;2.25;;
26060;SDS011;36331;51.378;0.018;2022-07-23T02:19:03;2.72;;;1.70;;
26060;SDS011;36331;51.378;0.018;2022-07-23T02:21:33;4.30;;;1.92;;
26060;SDS011;36331;51.378;0.018;2022-07-23T02:24:03;4.25;;;1.85;;
26060;SDS011;36331;51.378;0.018;2022-07-23T02:26:32;6.63;;;1.90;;
26060;SDS011;36331;51.378;0.018;2022-07-23T02:29:06;3.08;;;1.85;;
26060;SDS011;36331;51.378;0.018;2022-07-23T02:31:36;4.83;;;1.57;;
26060;SDS011;36331;51.378;0.018;2022-07-23T02:34:06;8.40;;;2.00;;
26060;SDS011;36331;51.378;0.018;2022-07-23T02:36:38;4.43;;;1.80;;
26060;SDS011;36331;51.378;0.018;2022-07-23T02:39:09;3.10;;;1.50;;
26060;SDS011;36331;51.378;0.018;2022-07-23T02:41:38;3.22;;;1.75;;
26060;SDS011;36331;51.378;0.018;2022-07-23T02:44:09;7.53;;;1.90;;
26060;SDS011;36331;51.378;0.018;2022-07-23T02:46:39;3.38;;;1.98;;
26060;SDS011;36331;51.378;0.018;2022-07-23T02:49:09;4.28;;;2.38;;
26060;SDS011;36331;51.378;0.018;2022-07-23T02:51:38;4.40;;;1.90;;
26060;SDS011;36331;51.378;0.018;2022-07-23T02:54:08;4.10;;;2.00;;
26060;SDS011;36331;51.378;0.018;2022-07-23T02:56:37;3.88;;;1.77;;
26060;SDS011;36331;51.378;0.018;2022-07-23T02:59:09;5.40;;;1.65;;
26060;SDS011;36331;51.378;0.018;2022-07-23T03:01:38;3.58;;;2.20;;
26060;SDS011;36331;51.378;0.018;2022-07-23T03:04:08;4.43;;;1.77;;
26060;SDS011;36331;51.378;0.018;2022-07-23T03:06:37;3.30;;;1.73;;
26060;SDS011;36331;51.378;0.018;2022-07-23T03:09:06;4.80;;;1.75;;
26060;SDS011;36331;51.378;0.018;2022-07-23T03:11:38;6.95;;;2.30;;
26060;SDS011;36331;51.378;0.018;2022-07-23T03:14:08;3.15;;;2.00;;
26060;SDS011;36331;51.378;0.018;2022-07-23T03:16:40;2.97;;;1.80;;
26060;SDS011;36331;51.378;0.018;2022-07-23T03:19:09;5.63;;;2.20;;
26060;SDS011;36331;51.378;0.018;2022-07-23T03:21:38;5.57;;;2.22;;
26060;SDS011;36331;51.378;0.018;2022-07-23T03:24:08;6.43;;;2.15;;
26060;SDS011;36331;51.378;0.018;2022-07-23T03:26:37;4.32;;;1.90;;
26060;SDS011;36331;51.378;0.018;2022-07-23T03:29:07;9.88;;;2.15;;
26060;SDS011;36331;51.378;0.018;2022-07-23T03:31:37;4.38;;;1.70;;
26060;SDS011;36331;51.378;0.018;2022-07-23T03:34:07;3.05;;;2.25;;
26060;SDS011;36331;51.378;0.018;2022-07-23T03:36:36;4.72;;;2.30;;
26060;SDS011;36331;51.378;0.018;2022-07-23T03:39:06;5.03;;;2.20;;
26060;SDS011;36331;51.378;0.018;2022-07-23T03:41:40;3.15;;;1.90;;
26060;SDS011;36331;51.378;0.018;2022-07-23T03:44:10;5.45;;;2.50;;
26060;SDS011;36331;51.378;0.018;2022-07-23T03:46:43;6.88;;;2.83;;
26060;SDS011;36331;51.378;0.018;2022-07-23T03:49:12;4.47;;;2.10;;
26060;SDS011;36331;51.378;0.018;2022-07-23T03:51:41;4.47;;;2.45;;
26060;SDS011;36331;51.378;0.018;2022-07-23T03:54:10;8.77;;;2.13;;
26060;SDS011;36331;51.378;0.018;2022-07-23T03:56:39;3.88;;;2.00;;
26060;SDS011;36331;51.378;0.018;2022-07-23T03:59:09;6.18;;;2.13;;
26060;SDS011;36331;51.378;0.018;2022-07-23T04:01:38;6.85;;;2.55;;
26060;SDS011;36331;51.378;0.018;2022-07-23T04:04:09;3.45;;;2.08;;
26060;SDS011;36331;51.378;0.018;2022-07-23T04:06:40;5.10;;;2.50;;
26060;SDS011;36331;51.378;0.018;2022-07-23T04:09:09;3.17;;;2.17;;
26060;SDS011;36331;51.378;0.018;2022-07-23T04:11:38;3.65;;;2.42;;
26060;SDS011;36331;51.378;0.018;2022-07-23T04:14:08;7.03;;;2.25;;
26060;SDS011;36331;51.378;0.018;2022-07-23T04:16:37;3.53;;;2.25;;
26060;SDS011;36331;51.378;0.018;2022-07-23T04:19:06;7.85;;;2.60;;
26060;SDS011;36331;51.378;0.018;2022-07-23T04:21:50;2.88;;;2.05;;
26060;SDS011;36331;51.378;0.018;2022-07-23T04:24:19;6.95;;;3.22;;
26060;SDS011;36331;51.378;0.018;2022-07-23T04:26:48;6.70;;;2.33;;
26060;SDS011;36331;51.378;0.018;2022-07-23T04:29:17;7.47;;;2.50;;
26060;SDS011;36331;51.378;0.018;2022-07-23T04:31:46;9.02;;;2.67;;
26060;SDS011;36331;51.378;0.018;2022-07-23T04:34:16;3.72;;;2.17;;
26060;SDS011;36331;51.378;0.018;2022-07-23T04:36:46;4.43;;;2.58;;
26060;SDS011;36331;51.378;0.018;2022-07-23T04:39:16;7.28;;;2.90;;
26060;SDS011;36331;51.378;0.018;2022-07-23T04:41:46;4.80;;;2.47;;
26060;SDS011;36331;51.378;0.018;2022-07-23T04:44:15;9.80;;;2.90;;
26060;SDS011;36331;51.378;0.018;2022-07-23T04:46:44;11.20;;;2.55;;
26060;SDS011;36331;51.378;0.018;2022-07-23T04:49:13;5.65;;;2.33;;
26060;SDS011;36331;51.378;0.018;2022-07-23T04:51:45;5.53;;;2.92;;
26060;SDS011;36331;51.378;0.018;2022-07-23T04:54:14;5.28;;;2.30;;
26060;SDS011;36331;51.378;0.018;2022-07-23T04:56:46;7.90;;;3.38;;
26060;SDS011;36331;51.378;0.018;2022-07-23T04:59:15;4.35;;;2.55;;
26060;SDS011;36331;51.378;0.018;2022-07-23T05:01:46;4.05;;;2.00;;
26060;SDS011;36331;51.378;0.018;2022-07-23T05:04:15;8.40;;;2.55;;
26060;SDS011;36331;51.378;0.018;2022-07-23T05:06:46;4.95;;;2.60;;
26060;SDS011;36331;51.378;0.018;2022-07-23T05:09:15;4.00;;;2.13;;
26060;SDS011;36331;51.378;0.018;2022-07-23T05:11:45;5.13;;;2.53;;
26060;SDS011;36331;51.378;0.018;2022-07-23T05:14:15;6.28;;;1.88;;
26060;SDS011;36331;51.378;0.018;2022-07-23T05:16:44;4.45;;;2.15;;
26060;SDS011;36331;51.378;0.018;2022-07-23T05:19:20;6.07;;;2.15;;
26060;SDS011;36331;51.378;0.018;2022-07-23T05:21:52;3.67;;;1.92;;
26060;SDS011;36331;51.378;0.018;2022-07-23T05:24:21;9.43;;;2.28;;
26060;SDS011;36331;51.378;0.018;2022-07-23T05:26:56;7.03;;;2.22;;
26060;SDS011;36331;51.378;0.018;2022-07-23T05:29:26;3.72;;;1.65;;
26060;SDS011;36331;51.378;0.018;2022-07-23T05:31:55;4.63;;;2.00;;
26060;SDS011;36331;51.378;0.018;2022-07-23T05:34:25;2.92;;;1.70;;
26060;SDS011;36331;51.378;0.018;2022-07-23T05:36:54;4.72;;;1.70;;
26060;SDS011;36331;51.378;0.018;2022-07-23T05:39:24;4.95;;;2.22;;
26060;SDS011;36331;51.378;0.018;2022-07-23T05:41:53;4.13;;;1.73;;
26060;SDS011;36331;51.378;0.018;2022-07-23T05:44:24;3.65;;;2.03;;
26060;SDS011;36331;51.378;0.018;2022-07-23T05:47:00;5.40;;;2.17;;
26060;SDS011;36331;51.378;0.018;2022-07-23T05:49:30;6.65;;;1.90;;
26060;SDS011;36331;51.378;0.018;2022-07-23T05:52:03;5.00;;;1.90;;
26060;SDS011;36331;51.378;0.018;2022-07-23T05:54:50;4.53;;;2.17;;
26060;SDS011;36331;51.378;0.018;2022-07-23T05:57:19;3.28;;;1.60;;
26060;SDS011;36331;51.378;0.018;2022-07-23T05:59:53;4.75;;;1.98;;
26060;SDS011;36331;51.378;0.018;2022-07-23T06:02:22;1.80;;;1.63;;
26060;SDS011;36331;51.378;0.018;2022-07-23T06:04:52;5.38;;;1.60;;
26060;SDS011;36331;51.378;0.018;2022-07-23T06:07:32;3.75;;;1.73;;
26060;SDS011;36331;51.378;0.018;2022-07-23T06:10:03;3.22;;;1.80;;
26060;SDS011;36331;51.378;0.018;2022-07-23T06:12:32;3.05;;;1.50;;
26060;SDS011;36331;51.378;0.018;2022-07-23T06:15:03;5.65;;;1.90;;
26060;SDS011;36331;51.378;0.018;2022-07-23T06:17:37;2.65;;;1.52;;
26060;SDS011;36331;51.378;0.018;2022-07-23T06:20:08;5.55;;;1.70;;
26060;SDS011;36331;51.378;0.018;2022-07-23T06:22:41;2.50;;;1.65;;
26060;SDS011;36331;51.378;0.018;2022-07-23T06:25:11;6.78;;;1.65;;
26060;SDS011;36331;51.378;0.018;2022-07-23T06:27:45;3.85;;;1.52;;
26060;SDS011;36331;51.378;0.018;2022-07-23T06:30:16;3.58;;;1.90;;
26060;SDS011;36331;51.378;0.018;2022-07-23T06:32:46;2.97;;;2.00;;
26060;SDS011;36331;51.378;0.018;2022-07-23T06:35:15;4.10;;;2.03;;
26060;SDS011;36331;51.378;0.018;2022-07-23T06:37:48;4.68;;;1.67;;
26060;SDS011;36331;51.378;0.018;2022-07-23T06:40:17;3.38;;;1.48;;
26060;SDS011;36331;51.378;0.018;2022-07-23T06:42:47;3.63;;;1.48;;
26060;SDS011;36331;51.378;0.018;2022-07-23T06:45:23;4.05;;;1.60;;
26060;SDS011;36331;51.378;0.018;2022-07-23T06:47:52;3.15;;;1.40;;
26060;SDS011;36331;51.378;0.018;2022-07-23T06:50:21;3.15;;;1.40;;
26060;SDS011;36331;51.378;0.018;2022-07-23T06:52:50;5.53;;;1.75;;
26060;SDS011;36331;51.378;0.018;2022-07-23T06:55:20;2.58;;;1.40;;
26060;SDS011;36331;51.378;0.018;2022-07-23T06:57:49;5.78;;;1.90;;
26060;SDS011;36331;51.378;0.018;2022-07-23T07:00:18;6.88;;;1.73;;
26060;SDS011;36331;51.378;0.018;2022-07-23T07:02:49;4.88;;;1.65;;
26060;SDS011;36331;51.378;0.018;2022-07-23T07:05:18;2.42;;;1.60;;
26060;SDS011;36331;51.378;0.018;2022-07-23T07:07:47;3.90;;;1.70;;
26060;SDS011;36331;51.378;0.018;2022-07-23T07:10:16;4.95;;;1.80;;
26060;SDS011;36331;51.378;0.018;2022-07-23T07:12:46;3.95;;;1.60;;
26060;SDS011;36331;51.378;0.018;2022-07-23T07:15:15;4.28;;;1.50;;
26060;SDS011;36331;51.378;0.018;2022-07-23T07:17:47;6.20;;;1.98;;
26060;SDS011;36331;51.378;0.018;2022-07-23T07:20:18;3.58;;;1.65;;
26060;SDS011;36331;51.378;0.018;2022-07-23T07:22:47;6.93;;;2.53;;
26060;SDS011;36331;51.378;0.018;2022-07-23T07:25:16;2.70;;;1.60;;
26060;SDS011;36331;51.378;0.018;2022-07-23T07:27:45;3.28;;;1.65;;
26060;SDS011;36331;51.378;0.018;2022-07-23T07:30:14;5.97;;;1.88;;
26060;SDS011;36331;51.378;0.018;2022-07-23T07:32:44;4.32;;;1.70;;
26060;SDS011;36331;51.378;0.018;2022-07-23T07:35:24;4.10;;;1.70;;
26060;SDS011;36331;51.378;0.018;2022-07-23T07:37:54;4.70;;;1.75;;
26060;SDS011;36331;51.378;0.018;2022-07-23T07:40:23;3.95;;;1.80;;
26060;SDS011;36331;51.378;0.018;2022-07-23T07:42:59;6.78;;;2.10;;
26060;SDS011;36331;51.378;0.018;2022-07-23T07:45:30;5.55;;;2.00;;
26060;SDS011;36331;51.378;0.018;2022-07-23T07:48:02;5.70;;;2.22;;
26060;SDS011;36331;51.378;0.018;2022-07-23T07:50:32;4.85;;;1.80;;
26060;SDS011;36331;51.378;0.018;2022-07-23T07:53:01;4.18;;;2.28;;
26060;SDS011;36331;51.378;0.018;2022-07-23T07:55:30;3.08;;;1.65;;
26060;SDS011;36331;51.378;0.018;2022-07-23T07:58:00;4.10;;;2.22;;
26060;SDS011;36331;51.378;0.018;2022-07-23T08:00:29;2.40;;;1.40;;
26060;SDS011;36331;51.378;0.018;2022-07-23T08:03:00;3.92;;;1.58;;
26060;SDS011;36331;51.378;0.018;2022-07-23T08:05:29;2.83;;;1.40;;
26060;SDS011;36331;51.378;0.018;2022-07-23T08:08:00;3.92;;;1.42;;
26060;SDS011;36331;51.378;0.018;2022-07-23T08:10:30;4.22;;;1.70;;
26060;SDS011;36331;51.378;0.018;2022-07-23T08:13:04;2.30;;;1.10;;
26060;SDS011;36331;51.378;0.018;2022-07-23T08:15:33;2.30;;;1.17;;
26060;SDS011;36331;51.378;0.018;2022-07-23T08:18:03;2.15;;;1.05;;
26060;SDS011;36331;51.378;0.018;2022-07-23T08:20:32;3.17;;;1.20;;
26060;SDS011;36331;51.378;0.018;2022-07-23T08:23:04;3.10;;;1.20;;
26060;SDS011;36331;51.378;0.018;2022-07-23T08:25:36;3.45;;;1.30;;
26060;SDS011;36331;51.378;0.018;2022-07-23T08:28:08;2.17;;;1.23;;
26060;SDS011;36331;51.378;0.018;2022-07-23T08:30:38;4.43;;;2.22;;
26060;SDS011;36331;51.378;0.018;2022-07-23T08:33:09;4.97;;;1.67;;
26060;SDS011;36331;51.378;0.018;2022-07-23T08:35:57;3.17;;;1.60;;
26060;SDS011;36331;51.378;0.018;2022-07-23T08:38:28;4.65;;;2.05;;
26060;SDS011;36331;51.378;0.018;2022-07-23T08:40:57;3.30;;;1.73;;
26060;SDS011;36331;51.378;0.018;2022-07-23T08:43:30;3.42;;;1.45;;
26060;SDS011;36331;51.378;0.018;2022-07-23T08:46:00;4.88;;;1.30;;
26060;SDS011;36331;51.378;0.018;2022-07-23T08:48:31;3.30;;;1.63;;
26060;SDS011;36331;51.378;0.018;2022-07-23T08:51:02;3.58;;;1.17;;
26060;SDS011;36331;51.378;0.018;2022-07-23T08:53:35;2.38;;;1.00;;
26060;SDS011;36331;51.378;0.018;2022-07-23T08:56:06;3.33;;;1.60;;
26060;SDS011;36331;51.378;0.018;2022-07-23T08:58:38;3.30;;;1.73;;
26060;SDS011;36331;51.378;0.018;2022-07-23T09:01:07;3.65;;;1.90;;
26060;SDS011;36331;51.378;0.018;2022-07-23T09:03:37;4.20;;;1.17;;
26060;SDS011;36331;51.378;0.018;2022-07-23T09:06:07;3.85;;;1.17;;
26060;SDS011;36331;51.378;0.018;2022-07-23T09:08:39;7.05;;;1.70;;
26060;SDS011;36331;51.378;0.018;2022-07-23T09:11:11;2.72;;;1.48;;
26060;SDS011;36331;51.378;0.018;2022-07-23T09:13:46;2.78;;;1.10;;
26060;SDS011;36331;51.378;0.018;2022-07-23T09:16:17;1.77;;;1.33;;
26060;SDS011;36331;51.378;0.018;2022-07-23T09:18:50;4.35;;;1.10;;
26060;SDS011;36331;51.378;0.018;2022-07-23T09:21:21;1.70;;;1.00;;
26060;SDS011;36331;51.378;0.018;2022-07-23T09:23:53;3.73;;;0.87;;
26060;SDS011;36331;51.378;0.018;2022-07-23T09:26:30;2.10;;;1.02;;
26060;SDS011;36331;51.378;0.018;2022-07-23T09:29:01;2.90;;;1.40;;
26060;SDS011;36331;51.378;0.018;2022-07-23T09:31:31;2.20;;;1.10;;
26060;SDS011;36331;51.378;0.018;2022-07-23T09:34:08;2.28;;;1.52;;
26060;SDS011;36331;51.378;0.018;2022-07-23T09:36:38;2.20;;;1.15;;
26060;SDS011;36331;51.378;0.018;2022-07-23T09:39:16;3.15;;;0.80;;
26060;SDS011;36331;51.378;0.018;2022-07-23T09:41:51;2.63;;;0.80;;
26060;SDS011;36331;51.378;0.018;2022-07-23T09:44:22;1.75;;;0.93;;
26060;SDS011;36331;51.378;0.018;2022-07-23T09:46:57;3.22;;;0.90;;
26060;SDS011;36331;51.378;0.018;2022-07-23T09:49:27;1.90;;;1.10;;
26060;SDS011;36331;51.378;0.018;2022-07-23T09:51:58;2.03;;;0.95;;
26060;SDS011;36331;51.378;0.018;2022-07-23T09:54:31;2.85;;;1.08;;
26060;SDS011;36331;51.378;0.018;2022-07-23T09:57:02;2.53;;;1.23;;
26060;SDS011;36331;51.378;0.018;2022-07-23T09:59:41;1.95;;;1.20;;
26060;SDS011;36331;51.378;0.018;2022-07-23T10:02:11;2.80;;;1.30;;
26060;SDS011;36331;51.378;0.018;2022-07-23T10:05:11;1.02;;;0.77;;
26060;SDS011;36331;51.378;0.018;2022-07-23T10:07:59;1.85;;;1.15;;
26060;SDS011;36331;51.378;0.018;2022-07-23T10:10:50;3.33;;;1.08;;
26060;SDS011;36331;51.378;0.018;2022-07-23T10:13:42;3.42;;;1.30;;
26060;SDS011;36331;51.378;0.018;2022-07-23T10:16:49;1.95;;;0.82;;
26060;SDS011;36331;51.378;0.018;2022-07-23T10:19:18;2.88;;;1.10;;
26060;SDS011;36331;51.378;0.018;2022-07-23T10:21:51;1.60;;;1.05;;
26060;SDS011;36331;51.378;0.018;2022-07-23T10:24:28;2.78;;;1.45;;
26060;SDS011;36331;51.378;0.018;2022-07-23T10:27:04;2.38;;;0.95;;
26060;SDS011;36331;51.378;0.018;2022-07-23T10:29:40;2.33;;;1.00;;
26060;SDS011;36331;51.378;0.018;2022-07-23T10:32:15;2.83;;;0.80;;
26060;SDS011;36331;51.378;0.018;2022-07-23T10:34:48;2.70;;;1.40;;
26060;SDS011;36331;51.378;0.018;2022-07-23T10:37:21;3.40;;;1.30;;
26060;SDS011;36331;51.378;0.018;2022-07-23T10:42:36;2.40;;;0.82;;
26060;SDS011;36331;51.378;0.018;2022-07-23T10:45:25;2.83;;;0.98;;
26060;SDS011;36331;51.378;0.018;2022-07-23T10:47:55;2.45;;;0.82;;
26060;SDS011;36331;51.378;0.018;2022-07-23T10:50:26;1.30;;;0.70;;
26060;SDS011;36331;51.378;0.018;2022-07-23T10:55:53;1.70;;;0.80;;
26060;SDS011;36331;51.378;0.018;2022-07-23T11:01:33;3.50;;;1.75;;
26060;SDS011;36331;51.378;0.018;2022-07-23T11:04:03;4.80;;;1.63;;
26060;SDS011;36331;51.378;0.018;2022-07-23T11:09:23;1.52;;;0.70;;
26060;SDS011;36331;51.378;0.018;2022-07-23T11:17:26;2.17;;;0.90;;
26060;SDS011;36331;51.378;0.018;2022-07-23T11:20:17;4.97;;;1.00;;
26060;SDS011;36331;51.378;0.018;2022-07-23T11:22:48;2.25;;;1.10;;
26060;SDS011;36331;51.378;0.018;2022-07-23T11:25:31;3.80;;;1.60;;
26060;SDS011;36331;51.378;0.018;2022-07-23T11:28:12;4.93;;;1.30;;
26060;SDS011;36331;51.378;0.018;2022-07-23T11:30:50;2.42;;;1.00;;
26060;SDS011;36331;51.378;0.018;2022-07-23T11:33:23;2.10;;;1.00;;
26060;SDS011;36331;51.378;0.018;2022-07-23T11:36:00;3.53;;;1.35;;
26060;SDS011;36331;51.378;0.018;2022-07-23T11:38:49;2.15;;;1.70;;
26060;SDS011;36331;51.378;0.018;2022-07-23T11:41:19;1.52;;;0.70;;
26060;SDS011;36331;51.378;0.018;2022-07-23T11:43:48;1.33;;;0.57;;
26060;SDS011;36331;51.378;0.018;2022-07-23T11:46:17;1.70;;;1.00;;
26060;SDS011;36331;51.378;0.018;2022-07-23T11:49:00;2.70;;;0.80;;
26060;SDS011;36331;51.378;0.018;2022-07-23T11:51:33;1.42;;;0.73;;
26060;SDS011;36331;51.378;0.018;2022-07-23T11:54:05;2.38;;;0.90;;
26060;SDS011;36331;51.378;0.018;2022-07-23T11:56:35;1.67;;;0.95;;
26060;SDS011;36331;51.378;0.018;2022-07-23T11:59:05;2.75;;;0.80;;
26060;SDS011;36331;51.378;0.018;2022-07-23T12:01:35;2.65;;;0.82;;
26060;SDS011;36331;51.378;0.018;2022-07-23T12:04:08;0.90;;;0.57;;
26060;SDS011;36331;51.378;0.018;2022-07-23T12:06:38;1.42;;;0.80;;
26060;SDS011;36331;51.378;0.018;2022-07-23T12:09:07;2.25;;;0.98;;
26060;SDS011;36331;51.378;0.018;2022-07-23T12:11:36;2.47;;;1.08;;
26060;SDS011;36331;51.378;0.018;2022-07-23T12:14:05;3.35;;;1.35;;
26060;SDS011;36331;51.378;0.018;2022-07-23T12:16:37;2.13;;;0.98;;
26060;SDS011;36331;51.378;0.018;2022-07-23T12:19:08;3.05;;;1.10;;
26060;SDS011;36331;51.378;0.018;2022-07-23T12:21:37;2.75;;;1.25;;
26060;SDS011;36331;51.378;0.018;2022-07-23T12:24:06;2.50;;;1.15;;
26060;SDS011;36331;51.378;0.018;2022-07-23T12:26:37;2.95;;;1.88;;
26060;SDS011;36331;51.378;0.018;2022-07-23T12:29:06;2.13;;;1.02;;
26060;SDS011;36331;51.378;0.018;2022-07-23T12:31:38;4.05;;;0.80;;
26060;SDS011;36331;51.378;0.018;2022-07-23T12:34:14;2.47;;;1.15;;
26060;SDS011;36331;51.378;0.018;2022-07-23T12:36:44;2.53;;;0.90;;
26060;SDS011;36331;51.378;0.018;2022-07-23T12:39:28;3.88;;;1.17;;
26060;SDS011;36331;51.378;0.018;2022-07-23T12:41:57;1.23;;;0.80;;
26060;SDS011;36331;51.378;0.018;2022-07-23T12:44:27;2.60;;;1.17;;
26060;SDS011;36331;51.378;0.018;2022-07-23T12:46:56;2.75;;;1.92;;
26060;SDS011;36331;51.378;0.018;2022-07-23T12:49:27;1.80;;;0.80;;
26060;SDS011;36331;51.378;0.018;2022-07-23T12:51:56;1.83;;;0.70;;
26060;SDS011;36331;51.378;0.018;2022-07-23T12:54:26;1.13;;;0.70;;
26060;SDS011;36331;51.378;0.018;2022-07-23T12:56:57;2.15;;;0.65;;
26060;SDS011;36331;51.378;0.018;2022-07-23T12:59:30;0.80;;;0.70;;
26060;SDS011;36331;51.378;0.018;2022-07-23T13:02:00;2.13;;;0.80;;
26060;SDS011;36331;51.378;0.018;2022-07-23T13:04:31;1.35;;;0.82;;
26060;SDS011;36331;51.378;0.018;2022-07-23T13:07:01;1.58;;;0.70;;
26060;SDS011;36331;51.378;0.018;2022-07-23T13:09:32;1.58;;;1.10;;
26060;SDS011;36331;51.378;0.018;2022-07-23T13:12:08;1.15;;;1.05;;
26060;SDS011;36331;51.378;0.018;2022-07-23T13:14:38;1.10;;;0.80;;
26060;SDS011;36331;51.378;0.018;2022-07-23T13:17:08;2.70;;;1.20;;
26060;SDS011;36331;51.378;0.018;2022-07-23T13:19:40;2.70;;;1.30;;
26060;SDS011;36331;51.378;0.018;2022-07-23T13:22:09;2.40;;;0.88;;
26060;SDS011;36331;51.378;0.018;2022-07-23T13:24:38;1.83;;;0.70;;
26060;SDS011;36331;51.378;0.018;2022-07-23T13:27:08;2.58;;;1.40;;
26060;SDS011;36331;51.378;0.018;2022-07-23T13:29:39;2.20;;;0.82;;
26060;SDS011;36331;51.378;0.018;2022-07-23T13:32:08;1.23;;;0.98;;
26060;SDS011;36331;51.378;0.018;2022-07-23T13:34:41;1.75;;;1.45;;
26060;SDS011;36331;51.378;0.018;2022-07-23T13:37:10;2.38;;;0.98;;
26060;SDS011;36331;51.378;0.018;2022-07-23T13:39:40;1.48;;;0.98;;
26060;SDS011;36331;51.378;0.018;2022-07-23T13:42:09;2.38;;;0.80;;
26060;SDS011;36331;51.378;0.018;2022-07-23T13:44:38;0.98;;;0.65;;
26060;SDS011;36331;51.378;0.018;2022-07-23T13:47:07;2.03;;;1.00;;
26060;SDS011;36331;51.378;0.018;2022-07-23T13:49:36;2.63;;;1.30;;
26060;SDS011;36331;51.378;0.018;2022-07-23T13:52:08;2.47;;;1.67;;
26060;SDS011;36331;51.378;0.018;2022-07-23T13:54:37;2.67;;;1.00;;
26060;SDS011;36331;51.378;0.018;2022-07-23T13:57:06;2.80;;;1.10;;
26060;SDS011;36331;51.378;0.018;2022-07-23T13:59:35;3.75;;;1.00;;
26060;SDS011;36331;51.378;0.018;2022-07-23T14:02:04;3.53;;;1.30;;
26060;SDS011;36331;51.378;0.018;2022-07-23T14:04:51;4.35;;;1.73;;
26060;SDS011;36331;51.378;0.018;2022-07-23T14:07:22;3.35;;;0.75;;
26060;SDS011;36331;51.378;0.018;2022-07-23T14:09:52;2.97;;;1.08;;
26060;SDS011;36331;51.378;0.018;2022-07-23T14:12:21;1.95;;;0.60;;
26060;SDS011;36331;51.378;0.018;2022-07-23T14:14:59;2.28;;;1.13;;
26060;SDS011;36331;51.378;0.018;2022-07-23T14:17:29;2.42;;;0.85;;
26060;SDS011;36331;51.378;0.018;2022-07-23T14:20:00;2.42;;;1.00;;
26060;SDS011;36331;51.378;0.018;2022-07-23T14:22:30;3.08;;;1.10;;
26060;SDS011;36331;51.378;0.018;2022-07-23T14:24:59;1.35;;;0.80;;
26060;SDS011;36331;51.378;0.018;2022-07-23T14:27:33;2.45;;;0.90;;
26060;SDS011;36331;51.378;0.018;2022-07-23T14:30:05;2.60;;;1.58;;
26060;SDS011;36331;51.378;0.018;2022-07-23T14:32:37;1.88;;;1.00;;
26060;SDS011;36331;51.378;0.018;2022-07-23T14:35:06;3.03;;;1.05;;
26060;SDS011;36331;51.378;0.018;2022-07-23T14:37:40;2.17;;;1.40;;
26060;SDS011;36331;51.378;0.018;2022-07-23T14:40:09;1.73;;;1.30;;
26060;SDS011;36331;51.378;0.018;2022-07-23T14:42:39;2.25;;;1.10;;
26060;SDS011;36331;51.378;0.018;2022-07-23T14:45:09;2.20;;;1.00;;
26060;SDS011;36331;51.378;0.018;2022-07-23T14:47:39;1.58;;;0.68;;
26060;SDS011;36331;51.378;0.018;2022-07-23T14:50:13;1.95;;;1.10;;
26060;SDS011;36331;51.378;0.018;2022-07-23T14:52:45;2.58;;;1.15;;
26060;SDS011;36331;51.378;0.018;2022-07-23T14:55:15;2.33;;;0.70;;
26060;SDS011;36331;51.378;0.018;2022-07-23T14:57:45;2.15;;;1.20;;
26060;SDS011;36331;51.378;0.018;2022-07-23T15:00:15;2.70;;;0.95;;
26060;SDS011;36331;51.378;0.018;2022-07-23T15:02:49;5.57;;;1.00;;
26060;SDS011;36331;51.378;0.018;2022-07-23T15:05:22;1.05;;;0.73;;
26060;SDS011;36331;51.378;0.018;2022-07-23T15:07:54;2.03;;;1.00;;
26060;SDS011;36331;51.378;0.018;2022-07-23T15:10:23;3.13;;;0.90;;
26060;SDS011;36331;51.378;0.018;2022-07-23T15:12:53;2.65;;;0.80;;
26060;SDS011;36331;51.378;0.018;2022-07-23T15:15:24;0.90;;;0.60;;
26060;SDS011;36331;51.378;0.018;2022-07-23T15:17:53;1.40;;;0.70;;
26060;SDS011;36331;51.378;0.018;2022-07-23T15:20:23;1.90;;;1.00;;
26060;SDS011;36331;51.378;0.018;2022-07-23T15:23:05;3.15;;;0.88;;
26060;SDS011;36331;51.378;0.018;2022-07-23T15:28:05;2.15;;;1.08;;
26060;SDS011;36331;51.378;0.018;2022-07-23T15:30:54;1.95;;;1.05;;
26060;SDS011;36331;51.378;0.018;2022-07-23T15:33:23;2.90;;;1.13;;
26060;SDS011;36331;51.378;0.018;2022-07-23T15:35:54;3.75;;;0.80;;
26060;SDS011;36331;51.378;0.018;2022-07-23T15:38:26;1.60;;;0.70;;